Meteo Giornale » Osservazioni meteo Italia » Udine-Rivolto

ore: 08:55 - Osservazioni Meteo Udine-Rivolto
Lat. 45° 59' N Lon. 13° 2' E Alt. 51 metri s.l.m.

nuvoloso

24 °C

Nuvoloso

Temp. 24 Ore

20 °C

32 °C

Nord

13 Km/h

Dew point 17 °C

Umidità 64 %

Visibilità  10 Km

Il sole sorge alle ore 06:28

Il sole tramonta alle ore 19:47

Data e Ora Cielo e Fenomeni T °C DP °C Um. % Pres. hPa Vis. km Vento km/h
Oggi h: 08:55 nuvoloso Nuvoloso 24 17 64 1018 10 N 13
Oggi h: 07:55 poco_nuvoloso Poco Nuvoloso 21 16 73 1017 10 N 11.1
Oggi h: 06:55 poco_nuvoloso Poco Nuvoloso 21 16 73 1016 10 N 14.8
Oggi h: 05:55 molto_nuvoloso Molto Nuvoloso 21 17 77 1016 10 N 14.8
Oggi h: 04:55 molto_nuvoloso Molto Nuvoloso 21 17 77 1016 10 N 13
Oggi h: 03:55 molto_nuvoloso Molto Nuvoloso 20 18 88 1016 10 N/NO 11.1
Oggi h: 02:55 molto_nuvoloso Molto Nuvoloso 20 18 88 1016 10 N 3.7
Oggi h: 01:19 nuvoloso_temporali Temporale 21 18 82 1016 10 O/NO 18.5
Oggi h: 00:55 molto_nuvoloso Molto Nuvoloso 22 17 73 1015 10 NO 16.7
Ieri h: 23:55 molto_nuvoloso Molto Nuvoloso 24 18 69 1015 10 N/NO 20.3
Ieri h: 22:55 molto_nuvoloso Molto Nuvoloso 23 21 88 1014 10 N 9.3
Ieri h: 21:55 sereno Sereno 24 20 78 1013 10 N 7.4
Ieri h: 20:55 sereno Sereno 25 21 78 1012 10 N 5.5
Ieri h: 19:55 sereno Sereno 27 21 69 1012 10 SE 7.4
Ieri h: 18:55 sereno Sereno 30 21 58 1012 10 S/SE 11.1
Ieri h: 17:55 sereno Sereno 31 21 55 1012 10 S 11.1
Ieri h: 16:55 sereno Sereno 32 18 43 1013 10 SO 9.3
Ieri h: 15:55 sereno Sereno 32 19 46 1013 10 S/SO 7.4
Ieri h: 14:55 sereno Sereno 32 19 46 1013 10 S 9.3
Ieri h: 13:55 sereno Sereno 31 20 52 1013 10 N 5.5
Ieri h: 12:55 sereno Sereno 31 19 48 1014 10 N 5.5
Ieri h: 11:55 sereno Sereno 30 20 55 1014 10 N 3.7
Ieri h: 10:55 sereno Sereno 29 20 58 1014 10 N 3.7
Ieri h: 09:55 sereno Sereno 27 19 61 1014 10 N 5.5